Time;durP1;ratioP1;P1;durP2;ratioP2;P2;SDS_P1;SDS_P2;PMS_P1;PMS_P2;Temp;Humidity;BMP_temperature;BMP_pressure;BME280_temperature;BME280_humidity;BME280_pressure;Samples;Min_cycle;Max_cycle;Signal;HPM_P1;HPM_P2
2022/05/26 00:05:37;;;;;;;;;;;17.00;99.90;;;;;;5112751;27;20056;-86
2022/05/26 00:08:36;;;;;;;3.60;1.85;;;17.00;99.90;;;;;;5125919;27;19964;-85
2022/05/26 00:11:35;;;;;;;5.10;1.48;;;17.00;99.90;;;;;;5094630;27;20138;-85
2022/05/26 00:14:32;;;;;;;4.22;1.45;;;16.90;99.90;;;;;;5100585;27;20055;-84
2022/05/26 00:17:38;;;;;;;2.72;1.60;;;17.00;99.90;;;;;;5108100;27;20687;-84
2022/05/26 00:20:37;;;;;;;5.82;2.17;;;17.00;99.90;;;;;;5102736;27;20048;-83
2022/05/26 00:23:38;;;;;;;8.90;1.77;;;16.90;99.90;;;;;;5109341;27;20054;-86
2022/05/26 00:26:20;;;;;;;3.63;2.58;;;16.90;99.90;;;;;;5127310;27;20171;-85
2022/05/26 00:29:26;;;;;;;3.88;1.13;;;17.00;99.90;;;;;;5107837;27;20142;-85
2022/05/26 00:32:14;;;;;;;2.80;1.80;;;16.90;99.90;;;;;;5106723;27;20047;-84
2022/05/26 00:34:50;;;;;;;6.20;1.80;;;17.00;99.90;;;;;;5124633;27;20047;-85
2022/05/26 00:37:53;;;;;;;3.90;1.70;;;17.10;99.90;;;;;;5065589;28;32005;-85
2022/05/26 00:40:35;;;;;;;9.85;2.80;;;16.60;99.90;;;;;;5085330;28;20044;-86
2022/05/26 00:43:29;;;;;;;2.72;1.33;;;17.10;99.90;;;;;;5072445;28;20044;-85
2022/05/26 00:46:31;;;;;;;9.82;1.90;;;16.90;99.90;;;;;;5066602;28;20071;-84
2022/05/26 00:49:23;;;;;;;;;;;17.30;99.90;;;;;;5042842;28;20040;-85
2022/05/26 00:52:33;;;;;;;16.50;2.97;;;17.00;99.90;;;;;;5070988;27;19959;-85
2022/05/26 00:55:06;;;;;;;7.28;1.67;;;17.00;99.90;;;;;;4991309;28;20080;-85
2022/05/26 00:58:19;;;;;;;2.22;1.70;;;17.00;99.90;;;;;;5077843;28;20048;-85
2022/05/26 01:01:35;;;;;;;;;;;;;;;;;;;;;
2022/05/26 01:05:06;;;;;;;4.95;2.90;;;17.00;99.90;;;;;;5083389;27;42602;-84
2022/05/26 01:11:09;;;;;;;3.40;1.83;;;17.20;99.90;;;;;;5082136;27;20044;-85
2022/05/26 01:14:17;;;;;;;;;;;;;;;;;;;;;
2022/05/26 01:17:35;;;;;;;4.82;2.03;;;16.80;99.90;;;;;;5082926;28;44902;-85
2022/05/26 01:20:26;;;;;;;5.40;1.90;;;17.10;99.90;;;;;;5066484;28;20049;-85
2022/05/26 01:23:33;;;;;;;7.95;2.00;;;16.70;99.90;;;;;;5064314;28;20072;-85
2022/05/26 01:26:56;;;;;;;5.00;1.67;;;16.90;99.90;;;;;;5072040;27;21147;-85
2022/05/26 01:29:44;;;;;;;3.30;1.33;;;16.90;99.90;;;;;;5081651;27;20528;-85
2022/05/26 01:32:55;;;;;;;7.25;1.70;;;16.90;99.90;;;;;;5070494;28;20051;-85
2022/05/26 01:36:15;;;;;;;;;;;;;;;;;;;;;
2022/05/26 01:39:23;;;;;;;8.10;2.33;;;16.90;99.90;;;;;;5068192;27;40199;-85
2022/05/26 01:42:39;;;;;;;7.10;1.80;;;16.80;99.90;;;;;;5084757;27;20036;-84
2022/05/26 01:45:51;;;;;;;5.80;2.28;;;16.80;99.90;;;;;;4983352;28;20559;-85
2022/05/26 01:49:10;;;;;;;;;;;;;;;;;;;;;
2022/05/26 01:52:27;;;;;;;;;;;;;;;;;;;;;
2022/05/26 01:55:23;;;;;;;4.38;1.75;;;16.70;99.90;;;;;;5048766;28;44292;-84
2022/05/26 01:58:37;;;;;;;7.18;1.75;;;16.60;99.90;;;;;;5050930;28;20060;-83
2022/05/26 02:01:47;;;;;;;5.13;1.65;;;16.60;99.90;;;;;;5049253;28;20053;-85
2022/05/26 02:05:06;;;;;;;;;;;;;;;;;;;;;
2022/05/26 02:08:21;;;;;;;5.47;1.50;;;16.80;99.90;;;;;;5048006;28;42543;-85
2022/05/26 02:11:10;;;;;;;8.50;1.70;;;16.70;99.90;;;;;;5037523;28;20198;-86
2022/05/26 02:14:50;;;;;;;;;;;;;;;;;;;;;
2022/05/26 02:17:33;;;;;;;3.10;1.60;;;16.70;99.90;;;;;;5004376;28;41102;-85
2022/05/26 02:20:21;;;;;;;;;;;;;;;;;;;;;
2022/05/26 02:23:26;;;;;;;5.85;2.08;;;16.60;99.90;;;;;;5003881;28;42209;-86
2022/05/26 02:26:07;;;;;;;4.45;2.25;;;16.00;99.90;;;;;;5003704;28;20043;-84
2022/05/26 02:32:15;;;;;;;5.78;2.83;;;16.50;99.90;;;;;;5003972;28;20050;-85
2022/05/26 02:34:59;;;;;;;5.97;2.95;;;16.10;99.90;;;;;;4987994;28;20141;-85
2022/05/26 02:37:57;;;;;;;7.68;1.80;;;16.60;99.90;;;;;;5012831;28;20049;-85
2022/05/26 02:40:49;;;;;;;2.55;1.77;;;16.90;99.90;;;;;;5023027;28;20079;-86
2022/05/26 02:43:47;;;;;;;7.47;1.63;;;16.60;99.90;;;;;;5025757;28;20542;-85
2022/05/26 02:46:47;;;;;;;6.85;2.40;;;16.50;99.90;;;;;;5001115;28;20070;-85
2022/05/26 02:49:53;;;;;;;4.25;1.67;;;16.50;99.90;;;;;;4988443;28;20050;-85
2022/05/26 02:52:52;;;;;;;6.90;2.05;;;16.40;99.90;;;;;;4982793;28;20676;-85
2022/05/26 02:55:53;;;;;;;;;;;;;;;;;;;;;
2022/05/26 02:58:57;;;;;;;6.43;1.73;;;16.50;99.90;;;;;;4963252;28;41896;-85
2022/05/26 03:02:13;;;;;;;;;;;;;;;;;;;;;
2022/05/26 03:05:34;;;;;;;5.05;1.35;;;16.50;99.90;;;;;;4964223;28;39193;-85
2022/05/26 03:09:23;;;;;;;4.32;1.58;;;16.40;99.90;;;;;;4973108;28;20085;-85
2022/05/26 03:12:24;;;;;;;3.55;1.08;;;16.70;99.90;;;;;;4947977;28;20556;-85
2022/05/26 03:18:14;;;;;;;3.53;1.98;;;16.50;99.90;;;;;;4997238;28;20046;-85
2022/05/26 03:23:53;;;;;;;4.03;1.63;;;16.50;99.90;;;;;;5068426;28;19920;-85
2022/05/26 03:29:46;;;;;;;;;;;;;;;;;;;;;
2022/05/26 03:32:41;;;;;;;3.22;2.05;;;16.60;99.90;;;;;;5085330;27;46272;-85
2022/05/26 03:41:25;;;;;;;5.82;2.17;;;16.50;99.90;;;;;;5087317;27;20044;-85
2022/05/26 03:44:45;;;;;;;6.85;1.50;;;16.40;99.90;;;;;;5083099;27;20055;-85
2022/05/26 03:47:12;;;;;;;7.68;1.77;;;16.50;99.90;;;;;;5033709;28;20592;-86
2022/05/26 03:49:43;;;;;;;4.82;1.27;;;16.50;99.90;;;;;;5081336;27;20616;-85
2022/05/26 03:52:10;;;;;;;2.75;1.33;;;16.40;99.90;;;;;;5085331;27;20066;-85
2022/05/26 03:54:37;;;;;;;9.57;1.65;;;16.60;99.90;;;;;;5103844;27;20048;-86
2022/05/26 03:57:03;;;;;;;5.88;2.65;;;16.40;99.90;;;;;;5080555;27;20043;-85
2022/05/26 03:59:33;;;;;;;4.18;1.80;;;16.40;99.90;;;;;;5084597;27;20123;-85
2022/05/26 04:01:59;;;;;;;5.28;2.15;;;16.40;99.90;;;;;;5083675;27;20144;-85
2022/05/26 04:04:25;;;;;;;8.80;2.05;;;16.40;99.90;;;;;;5087917;27;20047;-85
2022/05/26 04:06:51;;;;;;;6.03;1.67;;;16.40;99.90;;;;;;5084422;27;20044;-85
2022/05/26 04:09:17;;;;;;;3.75;1.23;;;16.40;99.90;;;;;;5085187;27;20530;-85
2022/05/26 04:11:44;;;;;;;9.02;1.98;;;16.40;99.90;;;;;;5083982;27;20040;-85
2022/05/26 04:14:18;;;;;;;4.00;1.20;;;16.40;99.90;;;;;;5086415;27;20767;-84
2022/05/26 04:16:53;;;;;;;6.80;1.70;;;16.50;99.90;;;;;;5086502;27;20051;-85
2022/05/26 04:19:21;;;;;;;3.28;1.60;;;16.50;99.90;;;;;;5088430;27;20041;-85
2022/05/26 04:24:37;;;;;;;3.97;1.30;;;16.50;99.90;;;;;;5086484;27;20048;-85
2022/05/26 04:27:04;;;;;;;3.92;2.45;;;16.50;99.90;;;;;;5086905;27;20055;-85
2022/05/26 04:29:36;;;;;;;5.05;1.38;;;16.50;99.90;;;;;;5104625;27;20103;-84
2022/05/26 04:32:06;;;;;;;4.13;1.50;;;16.50;99.90;;;;;;5090102;27;20593;-86
2022/05/26 04:34:33;;;;;;;4.38;3.03;;;16.50;99.90;;;;;;5087995;27;20131;-85
2022/05/26 04:37:28;;;;;;;5.28;1.98;;;16.40;99.90;;;;;;5089626;27;20105;-85
2022/05/26 04:39:58;;;;;;;4.60;1.60;;;16.50;99.90;;;;;;5079763;27;20538;-84
2022/05/26 04:42:25;;;;;;;3.85;1.10;;;16.50;99.90;;;;;;5078127;27;20703;-85
2022/05/26 04:44:54;;;;;;;2.25;1.35;;;16.50;99.90;;;;;;5077368;27;20571;-85
2022/05/26 04:47:20;;;;;;;3.92;1.27;;;16.50;99.90;;;;;;5076592;27;20130;-85
2022/05/26 04:49:50;;;;;;;2.80;1.45;;;16.50;99.90;;;;;;5094677;27;20091;-85
2022/05/26 04:52:21;;;;;;;3.42;1.23;;;16.50;99.90;;;;;;5064973;27;20777;-85
2022/05/26 04:54:47;;;;;;;5.97;1.80;;;16.50;99.90;;;;;;5089539;27;20048;-85
2022/05/26 04:57:22;;;;;;;4.45;1.10;;;16.40;99.90;;;;;;5093088;27;20823;-85
2022/05/26 04:59:49;;;;;;;3.28;1.20;;;16.20;99.90;;;;;;5093972;27;20047;-85
2022/05/26 05:02:17;;;;;;;2.33;0.93;;;16.20;99.90;;;;;;5088784;27;20506;-85
2022/05/26 05:04:44;;;;;;;8.73;1.30;;;16.30;99.90;;;;;;5093273;27;20048;-85
2022/05/26 05:07:11;;;;;;;1.27;0.70;;;16.30;99.90;;;;;;5074171;27;20047;-84
2022/05/26 05:09:41;;;;;;;1.45;0.57;;;16.30;99.90;;;;;;5072803;27;20040;-84
2022/05/26 05:12:19;;;;;;;1.65;0.73;;;16.30;99.90;;;;;;5089144;27;20203;-84
2022/05/26 05:14:48;;;;;;;3.25;0.88;;;16.30;99.90;;;;;;5073463;27;20055;-85
2022/05/26 05:17:44;;;;;;;1.75;1.00;;;16.40;99.90;;;;;;5090003;27;20037;-85
2022/05/26 05:20:13;;;;;;;2.03;0.70;;;16.30;99.90;;;;;;5076905;27;20074;-85
2022/05/26 05:22:45;;;;;;;1.35;0.65;;;16.30;99.90;;;;;;5072159;27;20101;-85
2022/05/26 05:25:32;;;;;;;0.65;0.60;;;16.30;99.90;;;;;;5090928;27;20139;-85
2022/05/26 05:28:26;;;;;;;0.68;0.40;;;16.40;99.90;;;;;;5089377;27;20048;-85
2022/05/26 05:31:16;;;;;;;0.35;0.32;;;16.40;99.90;;;;;;5066215;27;20473;-85
2022/05/26 05:33:49;;;;;;;1.42;0.68;;;16.60;99.90;;;;;;5092384;27;20062;-85
2022/05/26 05:36:20;;;;;;;1.95;0.95;;;16.70;99.90;;;;;;5070221;27;20102;-85
2022/05/26 05:38:47;;;;;;;0.70;0.60;;;16.70;99.90;;;;;;5090482;27;20044;-85
2022/05/26 05:41:13;;;;;;;0.50;0.40;;;16.70;99.90;;;;;;5090364;27;20070;-84
2022/05/26 05:43:40;;;;;;;2.97;0.47;;;16.70;99.90;;;;;;5087240;27;20059;-85
2022/05/26 05:46:11;;;;;;;0.93;0.57;;;16.70;99.90;;;;;;5069300;27;20742;-85
2022/05/26 05:48:39;;;;;;;0.98;0.30;;;16.70;99.90;;;;;;5088806;27;20607;-85
2022/05/26 05:51:13;;;;;;;0.57;0.30;;;16.70;99.90;;;;;;5090863;27;20044;-84
2022/05/26 05:53:39;;;;;;;0.47;0.32;;;16.60;99.90;;;;;;5074625;27;20104;-82
2022/05/26 05:56:05;;;;;;;0.30;0.30;;;16.70;99.90;;;;;;5091793;27;20082;-81
2022/05/26 05:58:31;;;;;;;1.52;0.50;;;16.70;99.90;;;;;;5089485;27;20044;-81
2022/05/26 06:00:57;;;;;;;0.28;0.20;;;16.70;99.90;;;;;;5091209;27;20062;-80
2022/05/26 06:03:23;;;;;;;2.40;0.40;;;16.80;99.90;;;;;;5089553;27;20044;-80
2022/05/26 06:05:49;;;;;;;0.10;0.10;;;16.90;99.90;;;;;;5089668;27;20124;-79
2022/05/26 06:08:15;;;;;;;0.22;0.22;;;17.00;99.90;;;;;;5086461;27;20074;-80
2022/05/26 06:10:41;;;;;;;0.30;0.20;;;17.10;99.90;;;;;;5087257;27;20071;-79
2022/05/26 06:13:07;;;;;;;0.40;0.40;;;17.00;99.90;;;;;;5088490;27;20627;-80
2022/05/26 06:15:33;;;;;;;1.17;0.30;;;17.00;99.90;;;;;;5088249;27;20066;-80
2022/05/26 06:17:59;;;;;;;1.65;0.30;;;17.00;99.90;;;;;;5072651;27;20106;-80
2022/05/26 06:20:26;;;;;;;0.80;0.40;;;17.00;99.90;;;;;;5090172;27;20639;-80
2022/05/26 06:22:52;;;;;;;5.35;1.17;;;17.00;99.90;;;;;;5068150;27;20044;-80
2022/05/26 06:25:19;;;;;;;1.05;0.60;;;16.90;99.90;;;;;;5090173;27;20127;-80
2022/05/26 06:30:31;;;;;;;1.42;0.45;;;17.00;99.90;;;;;;5089446;27;20169;-80
2022/05/26 06:38:35;;;;;;;2.05;0.60;;;17.10;99.90;;;;;;5090031;27;20461;-81
2022/05/26 06:42:05;;;;;;;0.40;0.40;;;17.30;99.90;;;;;;5090457;27;20529;-83
2022/05/26 06:43:55;;;;;;;3.60;1.13;;;17.40;99.90;;;;;;5087892;27;20113;-83
2022/05/26 06:46:21;;;;;;;0.68;0.43;;;17.40;99.90;;;;;;5089979;27;20051;-84
2022/05/26 06:48:47;;;;;;;0.73;0.50;;;17.50;99.90;;;;;;5087768;27;20468;-84
2022/05/26 06:51:16;;;;;;;1.35;0.40;;;17.60;99.90;;;;;;5069914;27;20036;-85
2022/05/26 06:53:44;;;;;;;1.15;0.50;;;17.70;99.90;;;;;;5071784;27;20052;-84
2022/05/26 06:56:10;;;;;;;1.65;0.50;;;17.80;99.90;;;;;;5066433;27;20075;-84
2022/05/26 06:58:39;;;;;;;1.05;0.70;;;17.90;99.90;;;;;;5089852;27;20417;-84
2022/05/26 07:01:13;;;;;;;0.32;0.32;;;17.90;99.90;;;;;;5066779;27;20517;-83
2022/05/26 07:03:39;;;;;;;3.30;0.73;;;18.00;99.90;;;;;;5069285;27;20050;-84
2022/05/26 07:06:12;;;;;;;1.05;0.50;;;18.10;99.90;;;;;;5088873;27;20062;-84
2022/05/26 07:08:37;;;;;;;1.23;0.85;;;18.00;99.90;;;;;;5092155;27;20055;-86
2022/05/26 07:11:03;;;;;;;2.63;0.70;;;17.90;99.90;;;;;;5074429;27;20044;-84
2022/05/26 07:13:29;;;;;;;0.57;0.50;;;18.00;99.90;;;;;;5088286;27;20098;-84
2022/05/26 07:15:55;;;;;;;1.25;0.55;;;18.00;99.90;;;;;;5092416;27;20048;-83
2022/05/26 07:18:21;;;;;;;0.43;0.43;;;18.10;99.90;;;;;;5090754;27;20089;-84
2022/05/26 07:20:47;;;;;;;2.70;0.80;;;18.10;99.90;;;;;;5076046;27;20853;-84
2022/05/26 07:23:13;;;;;;;1.45;0.52;;;18.00;99.90;;;;;;5088647;27;20040;-84
2022/05/26 07:25:40;;;;;;;0.20;0.20;;;17.90;99.90;;;;;;5092527;27;20052;-84
2022/05/26 07:28:06;;;;;;;0.20;0.20;;;17.90;99.90;;;;;;5089508;27;20063;-84
2022/05/26 07:30:32;;;;;;;0.20;0.20;;;17.70;99.90;;;;;;5091734;27;20072;-83
2022/05/26 07:32:57;;;;;;;0.52;0.38;;;17.60;99.90;;;;;;5093843;27;20056;-83
2022/05/26 07:35:23;;;;;;;0.90;0.40;;;17.50;99.90;;;;;;5077518;27;20056;-83
2022/05/26 07:43:54;;;;;;;;;;;;;;;;;;;;;
2022/05/26 07:50:03;;;;;;;0.68;0.40;;;17.50;99.90;;;;;;5055167;27;20036;-81
2022/05/26 07:52:29;;;;;;;1.50;0.60;;;17.50;99.90;;;;;;5089682;27;20036;-82
2022/05/26 07:54:55;;;;;;;0.30;0.30;;;17.60;99.90;;;;;;5068448;27;20070;-85
2022/05/26 07:57:24;;;;;;;1.20;0.70;;;18.00;99.90;;;;;;5091276;27;20067;-83
2022/05/26 07:59:51;;;;;;;1.08;0.47;;;18.10;99.90;;;;;;5066006;27;20044;-82
2022/05/26 08:02:18;;;;;;;0.82;0.40;;;18.30;99.90;;;;;;5088230;27;20044;-82
2022/05/26 08:04:44;;;;;;;1.20;0.40;;;18.40;99.90;;;;;;5084427;27;20284;-81
2022/05/26 08:07:10;;;;;;;0.73;0.40;;;18.50;99.90;;;;;;5084190;27;20072;-81
2022/05/26 08:09:40;;;;;;;1.73;0.47;;;18.50;99.90;;;;;;5075972;27;20892;-81
2022/05/26 08:12:07;;;;;;;0.45;0.30;;;18.60;99.90;;;;;;5083435;27;20033;-81
2022/05/26 08:14:34;;;;;;;0.77;0.25;;;18.70;99.90;;;;;;5066966;27;20699;-82
2022/05/26 08:17:01;;;;;;;0.40;0.40;;;18.70;99.90;;;;;;5090576;27;20143;-81
2022/05/26 08:19:27;;;;;;;0.30;0.30;;;18.60;99.90;;;;;;5090202;27;20036;-82
2022/05/26 08:21:53;;;;;;;0.30;0.30;;;18.30;99.90;;;;;;5093430;27;20123;-82
2022/05/26 08:24:19;;;;;;;0.77;0.40;;;18.10;99.90;;;;;;5093402;27;20036;-82
2022/05/26 08:26:47;;;;;;;0.40;0.40;;;17.90;99.90;;;;;;5074683;27;20170;-81
2022/05/26 08:29:13;;;;;;;0.85;0.40;;;17.90;99.90;;;;;;5092165;27;20036;-82
2022/05/26 08:31:38;;;;;;;0.55;0.50;;;18.10;99.90;;;;;;5091750;27;20501;-82
2022/05/26 08:34:04;;;;;;;1.00;0.60;;;18.40;99.90;;;;;;5075589;27;20032;-81
2022/05/26 08:36:32;;;;;;;0.77;0.77;;;18.50;99.90;;;;;;5091594;27;20040;-82
2022/05/26 08:38:58;;;;;;;0.20;0.20;;;18.50;99.90;;;;;;5076545;27;20055;-82
2022/05/26 08:41:36;;;;;;;0.50;0.40;;;18.50;99.90;;;;;;5087830;27;20530;-81
2022/05/26 08:44:10;;;;;;;0.50;0.45;;;18.60;99.90;;;;;;5090211;27;20036;-81
2022/05/26 08:46:48;;;;;;;1.00;0.50;;;18.80;99.90;;;;;;5088478;27;20032;-82
2022/05/26 08:49:30;;;;;;;0.57;0.30;;;18.90;99.90;;;;;;5074961;27;20067;-82
2022/05/26 08:52:04;;;;;;;0.82;0.30;;;19.00;99.90;;;;;;5091410;27;20544;-82
2022/05/26 08:54:47;;;;;;;0.73;0.40;;;19.00;99.90;;;;;;5091735;27;20372;-81
2022/05/26 08:57:17;;;;;;;0.40;0.40;;;19.30;99.90;;;;;;5088530;27;20079;-81
2022/05/26 08:59:45;;;;;;;0.68;0.35;;;19.40;99.90;;;;;;5089041;27;20048;-81
2022/05/26 09:02:28;;;;;;;0.20;0.20;;;19.50;99.90;;;;;;5092126;27;20040;-81
2022/05/26 09:04:58;;;;;;;0.50;0.40;;;19.60;99.90;;;;;;5094958;27;20052;-81
2022/05/26 09:13:11;;;;;;;0.22;0.20;;;19.50;99.90;;;;;;5095492;27;20050;-82
2022/05/26 09:15:37;;;;;;;1.08;0.10;;;19.50;99.90;;;;;;5093157;27;20082;-82
2022/05/26 09:18:13;;;;;;;0.15;0.15;;;19.60;99.90;;;;;;5094417;27;20633;-81
2022/05/26 09:20:41;;;;;;;0.10;0.10;;;19.70;99.90;;;;;;5072911;27;20044;-82
2022/05/26 09:23:15;;;;;;;0.10;0.10;;;19.70;99.90;;;;;;5093613;27;20036;-81
2022/05/26 09:25:49;;;;;;;0.10;0.10;;;19.60;99.90;;;;;;5095694;27;20040;-82
2022/05/26 09:28:49;;;;;;;0.15;0.15;;;19.50;99.90;;;;;;5094996;27;20056;-81
2022/05/26 09:31:45;;;;;;;0.20;0.20;;;19.70;99.90;;;;;;5031903;27;20049;-81
2022/05/26 09:34:24;;;;;;;1.58;0.50;;;20.00;99.90;;;;;;5090581;27;20142;-83
2022/05/26 09:36:52;;;;;;;0.25;0.13;;;19.80;99.90;;;;;;5091864;27;20604;-86
2022/05/26 09:39:39;;;;;;;0.73;0.40;;;19.80;99.90;;;;;;5075540;27;20118;-88
2022/05/26 09:42:22;;;;;;;0.20;0.20;;;19.90;99.90;;;;;;5090850;27;20131;-85
2022/05/26 09:48:36;;;;;;;0.98;0.65;;;20.00;99.90;;;;;;5093245;27;20475;-84
2022/05/26 09:51:24;;;;;;;0.35;0.32;;;20.10;99.90;;;;;;5078525;27;20083;-84
2022/05/26 09:54:01;;;;;;;1.10;0.65;;;20.10;99.90;;;;;;5093542;27;20120;-85
2022/05/26 10:00:36;;;;;;;0.30;0.30;;;20.30;99.90;;;;;;5083160;27;20052;-84
2022/05/26 10:07:29;;;;;;;;;;;;;;;;;;;;;
2022/05/26 10:14:48;;;;;;;0.65;0.43;;;20.70;99.90;;;;;;5014062;28;20559;-84
2022/05/26 10:18:11;;;;;;;0.30;0.30;;;20.70;99.90;;;;;;4995515;28;20050;-84
2022/05/26 10:21:21;;;;;;;1.27;0.65;;;20.70;99.90;;;;;;4997672;28;20054;-85
2022/05/26 10:24:19;;;;;;;;;;;;;;;;;;;;;
2022/05/26 10:27:25;;;;;;;0.88;0.50;;;21.00;99.90;;;;;;5094199;27;38706;-85
2022/05/26 10:30:33;;;;;;;1.35;0.40;;;21.10;99.90;;;;;;5073865;27;20044;-84
2022/05/26 10:33:42;;;;;;;1.42;0.38;;;21.20;99.90;;;;;;5052505;28;20049;-85
2022/05/26 10:36:26;;;;;;;0.73;0.38;;;21.30;99.90;;;;;;5034000;28;20041;-85
2022/05/26 10:45:35;;;;;;;;;;;;;;;;;;;;;
2022/05/26 10:48:42;;;;;;;0.82;0.82;;;21.40;99.90;;;;;;5050455;28;40499;-84
2022/05/26 10:51:57;;;;;;;0.22;0.22;;;21.00;99.90;;;;;;5050489;28;20578;-85
2022/05/26 10:55:33;;;;;;;0.38;0.20;;;21.40;99.90;;;;;;5049030;28;20106;-86
2022/05/26 10:58:48;;;;;;;2.15;0.90;;;21.30;99.90;;;;;;5026635;28;20083;-85
2022/05/26 11:08:34;;;;;;;;;;;;;;;;;;;;;
2022/05/26 11:11:15;;;;;;;3.47;1.58;;;21.60;99.90;;;;;;5069585;28;42987;-84
2022/05/26 11:14:17;;;;;;;0.50;0.50;;;21.50;99.90;;;;;;5068366;28;20060;-85
2022/05/26 11:17:24;;;;;;;0.50;0.50;;;21.20;99.90;;;;;;5065015;28;20370;-86
2022/05/26 11:20:20;;;;;;;1.15;0.60;;;21.30;99.90;;;;;;5062591;28;20231;-83
2022/05/26 11:23:06;;;;;;;0.80;0.63;;;21.30;99.90;;;;;;5060499;28;20056;-84
2022/05/26 11:25:57;;;;;;;1.50;0.75;;;21.30;99.90;;;;;;5055741;27;20051;-83
2022/05/26 11:29:05;;;;;;;2.50;1.42;;;21.30;99.90;;;;;;5090423;27;20053;-83
2022/05/26 11:37:54;;;;;;;1.80;0.70;;;21.70;99.60;;;;;;5093865;27;20083;-85
2022/05/26 11:40:42;;;;;;;0.43;0.20;;;21.80;99.80;;;;;;5057605;27;21584;-84
2022/05/26 11:43:33;;;;;;;1.10;0.40;;;21.90;99.60;;;;;;5074266;27;20052;-84
2022/05/26 11:46:04;;;;;;;1.33;0.43;;;22.10;99.40;;;;;;5060640;27;20047;-84
2022/05/26 11:48:55;;;;;;;1.42;0.50;;;21.50;99.10;;;;;;5073106;27;20040;-85
2022/05/26 11:51:47;;;;;;;0.60;0.60;;;22.00;99.40;;;;;;5079674;27;20098;-83
2022/05/26 11:55:11;;;;;;;0.88;0.50;;;22.00;99.50;;;;;;5077484;27;20606;-84
2022/05/26 11:57:56;;;;;;;1.05;0.40;;;22.30;99.00;;;;;;5067240;27;20040;-81
2022/05/26 12:00:51;;;;;;;0.73;0.52;;;22.30;98.60;;;;;;5068439;27;20215;-88
2022/05/26 12:03:54;;;;;;;0.73;0.30;;;22.20;98.40;;;;;;5075224;27;20533;-83
2022/05/26 12:06:40;;;;;;;1.60;0.80;;;22.30;98.30;;;;;;5074907;27;20098;-82
2022/05/26 12:09:37;;;;;;;0.43;0.32;;;22.50;98.20;;;;;;5093151;27;20996;-88
2022/05/26 12:12:33;;;;;;;0.57;0.50;;;22.50;98.00;;;;;;5080684;27;20460;-82
2022/05/26 12:15:36;;;;;;;1.20;0.70;;;22.60;97.90;;;;;;5079739;27;20541;-82
2022/05/26 12:18:30;;;;;;;0.35;0.35;;;22.70;97.80;;;;;;5044438;27;20173;-82
2022/05/26 12:21:14;;;;;;;2.63;0.95;;;22.70;97.30;;;;;;5079596;27;20579;-83
2022/05/26 12:23:46;;;;;;;1.52;0.57;;;22.70;97.30;;;;;;5088685;27;20039;-83
2022/05/26 12:26:28;;;;;;;;;;;22.80;97.30;;;;;;5075300;27;20048;-83
2022/05/26 12:28:58;;;;;;;;;;;22.90;97.20;;;;;;5074706;27;19933;-83
2022/05/26 12:31:27;;;;;;;2.22;0.60;;;22.80;96.90;;;;;;5077976;27;19920;-82
2022/05/26 12:34:21;;;;;;;0.52;0.40;;;22.80;96.90;;;;;;5092482;27;20058;-82
2022/05/26 12:37:04;;;;;;;0.30;0.30;;;22.80;96.60;;;;;;5083948;27;20044;-83
2022/05/26 12:40:23;;;;;;;0.20;0.20;;;22.90;96.50;;;;;;5095073;27;20552;-82
2022/05/26 12:43:34;;;;;;;2.45;0.40;;;23.00;96.40;;;;;;5013911;28;20053;-83
2022/05/26 12:46:14;;;;;;;0.60;0.40;;;23.30;96.10;;;;;;5011489;28;20048;-82
2022/05/26 12:49:04;;;;;;;1.55;0.60;;;23.30;95.80;;;;;;5008259;28;20575;-83
2022/05/26 12:51:56;;;;;;;0.85;0.77;;;23.10;95.60;;;;;;5013354;28;20068;-83
2022/05/26 12:54:34;;;;;;;;;;;23.20;95.80;;;;;;5060283;27;20565;-83
2022/05/26 12:57:11;;;;;;;1.20;0.50;;;23.30;95.80;;;;;;5072151;27;19989;-83
2022/05/26 12:59:44;;;;;;;0.38;0.38;;;23.10;95.70;;;;;;5078158;27;20971;-83
2022/05/26 13:02:14;;;;;;;1.65;0.55;;;23.10;95.50;;;;;;5075101;27;20048;-83
2022/05/26 13:04:49;;;;;;;0.60;0.57;;;23.20;95.60;;;;;;5086545;27;20043;-83
2022/05/26 13:07:43;;;;;;;0.47;0.40;;;23.10;95.50;;;;;;5093860;27;20046;-82
2022/05/26 13:10:18;;;;;;;1.27;0.80;;;23.40;95.40;;;;;;5071089;27;20055;-83
2022/05/26 13:12:52;;;;;;;1.75;0.38;;;22.80;94.90;;;;;;5075740;27;20521;-83
2022/05/26 13:15:26;;;;;;;3.28;0.70;;;23.20;95.00;;;;;;5075293;27;20880;-83
2022/05/26 13:17:53;;;;;;;0.68;0.43;;;22.90;94.70;;;;;;5077435;27;20039;-83
2022/05/26 13:20:35;;;;;;;0.60;0.60;;;23.00;94.70;;;;;;5094705;27;20102;-83
2022/05/26 13:23:09;;;;;;;0.47;0.32;;;23.10;94.50;;;;;;5073322;27;20054;-83
2022/05/26 13:26:04;;;;;;;0.75;0.45;;;23.10;94.50;;;;;;5073006;27;20098;-82
2022/05/26 13:28:38;;;;;;;1.55;1.15;;;23.10;94.30;;;;;;5069425;27;20146;-83
2022/05/26 13:34:06;;;;;;;0.90;0.57;;;23.10;94.50;;;;;;5092870;27;20170;-82
2022/05/26 13:36:45;;;;;;;0.63;0.57;;;23.10;94.40;;;;;;5094051;27;20993;-82
2022/05/26 13:39:28;;;;;;;;;;;;;;;;;;;;;
2022/05/26 13:41:57;;;;;;;0.88;0.55;;;23.10;94.30;;;;;;5088612;27;40349;-83
2022/05/26 13:44:51;;;;;;;2.53;0.60;;;23.20;94.30;;;;;;5068765;27;20040;-83
2022/05/26 13:47:22;;;;;;;1.08;0.40;;;23.20;94.30;;;;;;5066572;27;20082;-82
2022/05/26 13:50:26;;;;;;;0.47;0.47;;;23.30;94.10;;;;;;5085104;27;20605;-83
2022/05/26 13:52:55;;;;;;;1.05;0.50;;;23.20;94.10;;;;;;5073833;27;20285;-82
2022/05/26 13:55:27;;;;;;;0.30;0.30;;;23.20;94.10;;;;;;5069560;27;20543;-83
2022/05/26 13:58:03;;;;;;;2.08;0.50;;;23.20;94.10;;;;;;5089769;27;20265;-83
2022/05/26 14:00:33;;;;;;;0.47;0.47;;;23.20;94.00;;;;;;5075053;27;20036;-84
2022/05/26 14:03:07;;;;;;;0.57;0.57;;;23.10;93.90;;;;;;5076678;27;20043;-83
2022/05/26 14:05:36;;;;;;;0.50;0.47;;;23.20;94.00;;;;;;5095130;27;20591;-82
2022/05/26 14:08:10;;;;;;;0.68;0.57;;;23.20;93.80;;;;;;5094471;27;20051;-84
2022/05/26 14:10:47;;;;;;;1.75;0.50;;;23.20;93.70;;;;;;5075026;27;20093;-83
2022/05/26 14:13:17;;;;;;;0.65;0.40;;;23.30;93.70;;;;;;5094903;27;20072;-82
2022/05/26 14:15:51;;;;;;;1.10;0.63;;;23.40;93.70;;;;;;5077376;27;20646;-83
2022/05/26 14:18:40;;;;;;;1.08;0.50;;;23.40;93.50;;;;;;5073245;27;21311;-82
2022/05/26 14:21:18;;;;;;;1.15;0.52;;;23.40;93.60;;;;;;5095611;27;20040;-82
2022/05/26 14:24:33;;;;;;;1.65;0.55;;;23.40;93.60;;;;;;5095432;27;20576;-83
2022/05/26 14:27:17;;;;;;;3.50;0.75;;;23.50;93.70;;;;;;5073045;27;20044;-83
2022/05/26 14:30:13;;;;;;;2.60;0.90;;;23.50;93.70;;;;;;5090730;27;20044;-82
2022/05/26 14:32:42;;;;;;;3.72;1.02;;;23.40;93.50;;;;;;5073520;27;20044;-84
2022/05/26 14:35:21;;;;;;;1.40;0.75;;;23.20;93.50;;;;;;5075528;27;20040;-83
2022/05/26 14:37:52;;;;;;;1.02;0.77;;;23.20;93.50;;;;;;5075341;27;20051;-83
2022/05/26 14:40:21;;;;;;;5.05;1.02;;;23.20;93.50;;;;;;5079007;27;20044;-83
2022/05/26 14:42:49;;;;;;;1.65;0.60;;;23.30;93.60;;;;;;5078312;27;20292;-84
2022/05/26 14:45:23;;;;;;;0.68;0.60;;;23.40;93.60;;;;;;5094600;27;20551;-83
2022/05/26 14:47:49;;;;;;;1.52;0.68;;;23.50;93.60;;;;;;5084959;27;20047;-83
2022/05/26 14:50:18;;;;;;;1.85;0.75;;;23.40;93.50;;;;;;5092605;27;20095;-83
2022/05/26 14:52:59;;;;;;;1.52;0.65;;;23.40;93.30;;;;;;5077592;27;20095;-83
2022/05/26 14:55:29;;;;;;;2.50;0.77;;;23.60;93.20;;;;;;5078002;27;20036;-84
2022/05/26 14:58:20;;;;;;;2.03;0.75;;;23.80;93.20;;;;;;5088141;27;20055;-83
2022/05/26 15:01:00;;;;;;;1.42;0.60;;;23.90;92.90;;;;;;5095349;27;20060;-83
2022/05/26 15:03:26;;;;;;;1.95;0.70;;;24.00;93.00;;;;;;5075526;27;20040;-83
2022/05/26 15:05:53;;;;;;;1.80;0.75;;;24.10;93.00;;;;;;5075556;27;20122;-83
2022/05/26 15:08:46;;;;;;;0.45;0.45;;;24.10;92.80;;;;;;5095550;27;20044;-83
2022/05/26 15:11:16;;;;;;;0.98;0.70;;;24.00;92.40;;;;;;5076585;27;20117;-84
2022/05/26 15:13:52;;;;;;;1.10;1.00;;;24.00;92.60;;;;;;5075538;27;20067;-83
2022/05/26 15:16:24;;;;;;;0.50;0.50;;;23.90;92.50;;;;;;5072552;27;20605;-83
2022/05/26 15:18:54;;;;;;;0.88;0.50;;;24.30;92.60;;;;;;5094217;27;20051;-83
2022/05/26 15:21:22;;;;;;;0.45;0.43;;;24.00;92.30;;;;;;5077534;27;20052;-83
2022/05/26 15:23:53;;;;;;;2.70;0.70;;;23.90;92.20;;;;;;5077326;27;20225;-83
2022/05/26 15:26:26;;;;;;;1.65;1.13;;;23.80;92.30;;;;;;5076824;27;20048;-83
2022/05/26 15:28:54;;;;;;;1.00;0.77;;;23.80;92.20;;;;;;5071916;27;20051;-83
2022/05/26 15:31:21;;;;;;;1.20;0.75;;;23.70;92.20;;;;;;5075165;27;21051;-84
2022/05/26 15:33:48;;;;;;;2.63;0.77;;;23.70;92.20;;;;;;5077190;27;20093;-83
2022/05/26 15:36:22;;;;;;;0.93;0.70;;;23.80;92.20;;;;;;5076081;27;20966;-83
2022/05/26 15:39:01;;;;;;;1.88;0.65;;;23.90;92.20;;;;;;5094165;27;20514;-83
2022/05/26 15:41:32;;;;;;;4.00;0.70;;;24.10;92.10;;;;;;5093313;27;20670;-84
2022/05/26 15:44:05;;;;;;;0.47;0.40;;;24.10;91.90;;;;;;5074125;27;20612;-83
2022/05/26 15:46:37;;;;;;;1.08;0.70;;;24.30;91.60;;;;;;5094492;27;20040;-84
2022/05/26 15:49:13;;;;;;;0.55;0.50;;;24.30;91.60;;;;;;5078131;27;20052;-83
2022/05/26 15:51:44;;;;;;;2.72;0.60;;;24.50;91.60;;;;;;5094025;27;20044;-83
2022/05/26 15:54:13;;;;;;;1.77;0.75;;;24.10;91.60;;;;;;5074560;27;20865;-84
2022/05/26 15:56:57;;;;;;;2.17;0.70;;;24.00;91.70;;;;;;5076239;27;20228;-84